sensor_id;sensor_type;location;lat;lon;timestamp;pressure;altitude;pressure_sealevel;temperature;humidity
6433;BME280;3249;42.690;23.260;2023-10-13T00:00:54;94747.78;;;9.66;100.00
6433;BME280;3249;42.690;23.260;2023-10-13T00:03:27;94749.53;;;9.79;100.00
6433;BME280;3249;42.690;23.260;2023-10-13T00:05:58;94725.25;;;9.62;100.00
6433;BME280;3249;42.690;23.260;2023-10-13T00:08:29;94724.47;;;9.35;100.00
6433;BME280;3249;42.690;23.260;2023-10-13T00:10:59;94741.81;;;9.39;100.00
6433;BME280;3249;42.690;23.260;2023-10-13T00:13:29;94730.97;;;9.24;100.00
6433;BME280;3249;42.690;23.260;2023-10-13T00:16:06;94735.50;;;9.35;100.00
6433;BME280;3249;42.690;23.260;2023-10-13T00:18:45;94736.28;;;9.55;100.00
6433;BME280;3249;42.690;23.260;2023-10-13T00:21:15;94736.31;;;9.42;100.00
6433;BME280;3249;42.690;23.260;2023-10-13T00:23:46;94729.78;;;9.20;100.00
6433;BME280;3249;42.690;23.260;2023-10-13T00:26:22;94730.16;;;9.43;100.00
6433;BME280;3249;42.690;23.260;2023-10-13T00:28:54;94718.13;;;9.50;100.00
6433;BME280;3249;42.690;23.260;2023-10-13T00:31:35;94728.41;;;9.64;100.00
6433;BME280;3249;42.690;23.260;2023-10-13T00:34:09;94738.50;;;9.39;100.00
6433;BME280;3249;42.690;23.260;2023-10-13T00:36:45;94738.44;;;9.00;100.00
6433;BME280;3249;42.690;23.260;2023-10-13T00:39:36;94736.41;;;8.76;100.00
6433;BME280;3249;42.690;23.260;2023-10-13T00:42:10;94746.03;;;8.61;100.00
6433;BME280;3249;42.690;23.260;2023-10-13T00:44:46;94714.19;;;8.42;100.00
6433;BME280;3249;42.690;23.260;2023-10-13T00:47:15;94740.53;;;8.70;100.00
6433;BME280;3249;42.690;23.260;2023-10-13T00:50:04;94719.81;;;8.78;100.00
6433;BME280;3249;42.690;23.260;2023-10-13T00:52:33;94744.38;;;9.00;100.00
6433;BME280;3249;42.690;23.260;2023-10-13T00:55:08;94741.78;;;8.94;100.00
6433;BME280;3249;42.690;23.260;2023-10-13T00:57:35;94738.97;;;8.76;100.00
6433;BME280;3249;42.690;23.260;2023-10-13T01:00:07;94743.38;;;8.95;100.00
6433;BME280;3249;42.690;23.260;2023-10-13T01:02:43;94739.41;;;8.92;100.00
6433;BME280;3249;42.690;23.260;2023-10-13T01:05:24;94740.03;;;9.07;100.00
6433;BME280;3249;42.690;23.260;2023-10-13T01:07:51;94737.63;;;8.99;100.00
6433;BME280;3249;42.690;23.260;2023-10-13T01:10:22;94741.94;;;8.79;100.00
6433;BME280;3249;42.690;23.260;2023-10-13T01:12:54;94743.75;;;8.85;100.00
6433;BME280;3249;42.690;23.260;2023-10-13T01:15:25;94743.94;;;8.90;100.00
6433;BME280;3249;42.690;23.260;2023-10-13T01:18:06;94742.59;;;9.07;100.00
6433;BME280;3249;42.690;23.260;2023-10-13T01:20:41;94743.19;;;8.96;100.00
6433;BME280;3249;42.690;23.260;2023-10-13T01:23:14;94748.25;;;8.83;100.00
6433;BME280;3249;42.690;23.260;2023-10-13T01:25:44;94737.44;;;8.88;100.00
6433;BME280;3249;42.690;23.260;2023-10-13T01:28:11;94738.06;;;9.03;100.00
6433;BME280;3249;42.690;23.260;2023-10-13T01:30:42;94743.19;;;9.03;100.00
6433;BME280;3249;42.690;23.260;2023-10-13T01:33:10;94743.56;;;9.00;100.00
6433;BME280;3249;42.690;23.260;2023-10-13T01:35:41;94751.25;;;8.87;100.00
6433;BME280;3249;42.690;23.260;2023-10-13T01:38:16;94750.97;;;8.62;100.00
6433;BME280;3249;42.690;23.260;2023-10-13T01:40:45;94755.69;;;8.52;100.00
6433;BME280;3249;42.690;23.260;2023-10-13T01:43:17;94746.88;;;8.74;100.00
6433;BME280;3249;42.690;23.260;2023-10-13T01:45:46;94750.22;;;8.68;100.00
6433;BME280;3249;42.690;23.260;2023-10-13T01:48:13;94754.00;;;8.79;100.00
6433;BME280;3249;42.690;23.260;2023-10-13T01:50:45;94761.34;;;8.88;100.00
6433;BME280;3249;42.690;23.260;2023-10-13T01:53:16;94743.75;;;8.85;100.00
6433;BME280;3249;42.690;23.260;2023-10-13T01:55:46;94743.53;;;8.80;100.00
6433;BME280;3249;42.690;23.260;2023-10-13T01:58:14;94742.75;;;8.80;100.00
6433;BME280;3249;42.690;23.260;2023-10-13T02:00:45;94745.09;;;8.75;100.00
6433;BME280;3249;42.690;23.260;2023-10-13T02:03:14;94720.56;;;8.59;100.00
6433;BME280;3249;42.690;23.260;2023-10-13T02:05:44;94736.13;;;8.51;100.00
6433;BME280;3249;42.690;23.260;2023-10-13T02:08:16;94733.63;;;8.64;100.00
6433;BME280;3249;42.690;23.260;2023-10-13T02:10:50;94738.75;;;8.64;100.00
6433;BME280;3249;42.690;23.260;2023-10-13T02:13:19;94738.34;;;8.74;100.00
6433;BME280;3249;42.690;23.260;2023-10-13T02:15:53;94734.19;;;8.66;100.00
6433;BME280;3249;42.690;23.260;2023-10-13T02:18:23;94733.44;;;8.72;100.00
6433;BME280;3249;42.690;23.260;2023-10-13T02:21:03;94724.31;;;8.57;100.00
6433;BME280;3249;42.690;23.260;2023-10-13T02:23:42;94730.06;;;8.65;100.00
6433;BME280;3249;42.690;23.260;2023-10-13T02:26:11;94724.00;;;8.32;100.00
6433;BME280;3249;42.690;23.260;2023-10-13T02:28:42;94735.94;;;8.53;100.00
6433;BME280;3249;42.690;23.260;2023-10-13T02:31:10;94735.53;;;8.49;100.00
6433;BME280;3249;42.690;23.260;2023-10-13T02:33:39;94724.50;;;8.62;100.00
6433;BME280;3249;42.690;23.260;2023-10-13T02:36:11;94737.16;;;8.70;100.00
6433;BME280;3249;42.690;23.260;2023-10-13T02:38:50;94732.34;;;8.47;100.00
6433;BME280;3249;42.690;23.260;2023-10-13T02:41:23;94741.59;;;8.42;100.00
6433;BME280;3249;42.690;23.260;2023-10-13T02:43:52;94744.81;;;8.50;100.00
6433;BME280;3249;42.690;23.260;2023-10-13T02:46:23;94747.03;;;8.66;100.00
6433;BME280;3249;42.690;23.260;2023-10-13T02:48:55;94750.31;;;8.47;100.00
6433;BME280;3249;42.690;23.260;2023-10-13T02:51:27;94745.47;;;8.65;100.00
6433;BME280;3249;42.690;23.260;2023-10-13T02:54:03;94744.31;;;8.81;100.00
6433;BME280;3249;42.690;23.260;2023-10-13T02:56:36;94747.88;;;8.80;100.00
6433;BME280;3249;42.690;23.260;2023-10-13T02:59:04;94753.00;;;8.80;100.00
6433;BME280;3249;42.690;23.260;2023-10-13T03:01:34;94751.63;;;8.84;100.00
6433;BME280;3249;42.690;23.260;2023-10-13T03:04:02;94727.63;;;8.44;100.00
6433;BME280;3249;42.690;23.260;2023-10-13T03:06:35;94761.63;;;8.66;100.00
6433;BME280;3249;42.690;23.260;2023-10-13T03:09:06;94760.03;;;8.58;100.00
6433;BME280;3249;42.690;23.260;2023-10-13T03:11:44;94759.00;;;8.46;100.00
6433;BME280;3249;42.690;23.260;2023-10-13T03:14:15;94750.53;;;8.12;100.00
6433;BME280;3249;42.690;23.260;2023-10-13T03:16:55;94766.53;;;8.20;100.00
6433;BME280;3249;42.690;23.260;2023-10-13T03:19:28;94733.59;;;7.83;100.00
6433;BME280;3249;42.690;23.260;2023-10-13T03:21:59;94763.25;;;8.26;100.00
6433;BME280;3249;42.690;23.260;2023-10-13T03:24:38;94754.56;;;8.27;100.00
6433;BME280;3249;42.690;23.260;2023-10-13T03:27:11;94748.31;;;8.02;100.00
6433;BME280;3249;42.690;23.260;2023-10-13T03:29:43;94756.88;;;7.88;100.00
6433;BME280;3249;42.690;23.260;2023-10-13T03:32:15;94753.69;;;7.80;100.00
6433;BME280;3249;42.690;23.260;2023-10-13T03:34:46;94749.81;;;7.90;100.00
6433;BME280;3249;42.690;23.260;2023-10-13T03:37:19;94750.16;;;7.87;100.00
6433;BME280;3249;42.690;23.260;2023-10-13T03:40:07;94745.91;;;8.01;100.00
6433;BME280;3249;42.690;23.260;2023-10-13T03:42:58;94752.25;;;8.05;100.00
6433;BME280;3249;42.690;23.260;2023-10-13T03:45:33;94746.47;;;7.96;100.00
6433;BME280;3249;42.690;23.260;2023-10-13T03:48:06;94736.72;;;8.13;100.00
6433;BME280;3249;42.690;23.260;2023-10-13T03:50:54;94731.50;;;8.27;100.00
6433;BME280;3249;42.690;23.260;2023-10-13T03:53:29;94724.50;;;8.15;100.00
6433;BME280;3249;42.690;23.260;2023-10-13T03:56:06;94715.72;;;8.30;100.00
6433;BME280;3249;42.690;23.260;2023-10-13T03:58:40;94722.25;;;8.39;100.00
6433;BME280;3249;42.690;23.260;2023-10-13T04:01:12;94697.94;;;8.22;100.00
6433;BME280;3249;42.690;23.260;2023-10-13T04:03:43;94730.94;;;8.04;100.00
6433;BME280;3249;42.690;23.260;2023-10-13T04:06:23;94726.97;;;7.95;100.00
6433;BME280;3249;42.690;23.260;2023-10-13T04:09:16;94723.41;;;7.96;100.00
6433;BME280;3249;42.690;23.260;2023-10-13T04:12:03;94716.34;;;7.98;100.00
6433;BME280;3249;42.690;23.260;2023-10-13T04:14:50;94718.75;;;8.13;100.00
6433;BME280;3249;42.690;23.260;2023-10-13T04:17:42;94727.13;;;8.21;100.00
6433;BME280;3249;42.690;23.260;2023-10-13T04:20:14;94731.19;;;8.09;100.00
6433;BME280;3249;42.690;23.260;2023-10-13T04:23:04;94732.28;;;8.00;100.00
6433;BME280;3249;42.690;23.260;2023-10-13T04:25:48;94735.41;;;8.23;100.00
6433;BME280;3249;42.690;23.260;2023-10-13T04:28:32;94743.41;;;8.48;100.00
6433;BME280;3249;42.690;23.260;2023-10-13T04:31:17;94750.56;;;8.52;100.00
6433;BME280;3249;42.690;23.260;2023-10-13T04:33:58;94750.88;;;8.02;100.00
6433;BME280;3249;42.690;23.260;2023-10-13T04:36:28;94733.59;;;7.83;100.00
6433;BME280;3249;42.690;23.260;2023-10-13T04:39:11;94743.44;;;8.20;100.00
6433;BME280;3249;42.690;23.260;2023-10-13T04:41:42;94759.34;;;8.37;100.00
6433;BME280;3249;42.690;23.260;2023-10-13T04:44:26;94764.31;;;8.45;100.00
6433;BME280;3249;42.690;23.260;2023-10-13T04:47:07;94768.84;;;8.36;100.00
6433;BME280;3249;42.690;23.260;2023-10-13T04:49:44;94766.19;;;8.64;100.00
6433;BME280;3249;42.690;23.260;2023-10-13T04:52:18;94769.22;;;8.80;100.00
6433;BME280;3249;42.690;23.260;2023-10-13T04:55:00;94761.53;;;8.87;100.00
6433;BME280;3249;42.690;23.260;2023-10-13T04:57:43;94774.00;;;8.96;100.00
6433;BME280;3249;42.690;23.260;2023-10-13T05:00:22;94786.03;;;9.02;100.00
6433;BME280;3249;42.690;23.260;2023-10-13T05:03:04;94788.41;;;9.04;100.00
6433;BME280;3249;42.690;23.260;2023-10-13T05:05:45;94787.41;;;8.98;100.00
6433;BME280;3249;42.690;23.260;2023-10-13T05:08:36;94789.03;;;9.12;100.00
6433;BME280;3249;42.690;23.260;2023-10-13T05:11:17;94768.44;;;8.99;100.00
6433;BME280;3249;42.690;23.260;2023-10-13T05:13:59;94796.31;;;9.09;100.00
6433;BME280;3249;42.690;23.260;2023-10-13T05:16:43;94804.44;;;9.12;100.00
6433;BME280;3249;42.690;23.260;2023-10-13T05:19:25;94809.59;;;9.19;100.00
6433;BME280;3249;42.690;23.260;2023-10-13T05:22:06;94803.91;;;9.43;100.00
6433;BME280;3249;42.690;23.260;2023-10-13T05:25:00;94802.72;;;9.65;100.00
6433;BME280;3249;42.690;23.260;2023-10-13T05:27:41;94816.38;;;9.79;100.00
6433;BME280;3249;42.690;23.260;2023-10-13T05:30:23;94816.38;;;9.66;100.00
6433;BME280;3249;42.690;23.260;2023-10-13T05:33:07;94812.81;;;9.67;100.00
6433;BME280;3249;42.690;23.260;2023-10-13T05:35:49;94809.88;;;9.96;100.00
6433;BME280;3249;42.690;23.260;2023-10-13T05:38:30;94821.34;;;10.13;100.00
6433;BME280;3249;42.690;23.260;2023-10-13T05:41:12;94834.38;;;10.31;100.00
6433;BME280;3249;42.690;23.260;2023-10-13T05:43:53;94799.00;;;10.20;100.00
6433;BME280;3249;42.690;23.260;2023-10-13T05:46:35;94831.78;;;10.44;100.00
6433;BME280;3249;42.690;23.260;2023-10-13T05:49:19;94819.88;;;10.62;100.00
6433;BME280;3249;42.690;23.260;2023-10-13T05:52:01;94830.91;;;10.76;100.00
6433;BME280;3249;42.690;23.260;2023-10-13T05:54:46;94830.47;;;10.92;100.00
6433;BME280;3249;42.690;23.260;2023-10-13T05:57:27;94823.28;;;11.00;100.00
6433;BME280;3249;42.690;23.260;2023-10-13T06:00:10;94829.50;;;10.86;100.00
6433;BME280;3249;42.690;23.260;2023-10-13T06:02:51;94828.56;;;10.68;100.00
6433;BME280;3249;42.690;23.260;2023-10-13T06:05:36;94833.59;;;10.94;100.00
6433;BME280;3249;42.690;23.260;2023-10-13T06:08:19;94835.53;;;11.11;100.00
6433;BME280;3249;42.690;23.260;2023-10-13T06:11:01;94835.88;;;11.21;100.00
6433;BME280;3249;42.690;23.260;2023-10-13T06:13:42;94835.72;;;11.47;100.00
6433;BME280;3249;42.690;23.260;2023-10-13T06:16:24;94839.50;;;11.45;100.00
6433;BME280;3249;42.690;23.260;2023-10-13T06:19:06;94837.28;;;11.48;100.00
6433;BME280;3249;42.690;23.260;2023-10-13T06:21:50;94847.03;;;11.84;100.00
6433;BME280;3249;42.690;23.260;2023-10-13T06:24:32;94856.19;;;11.80;100.00
6433;BME280;3249;42.690;23.260;2023-10-13T06:27:15;94854.25;;;11.69;100.00
6433;BME280;3249;42.690;23.260;2023-10-13T06:29:57;94867.75;;;11.95;100.00
6433;BME280;3249;42.690;23.260;2023-10-13T06:32:27;94858.84;;;11.67;100.00
6433;BME280;3249;42.690;23.260;2023-10-13T06:34:57;94849.00;;;11.51;100.00
6433;BME280;3249;42.690;23.260;2023-10-13T06:37:34;94861.47;;;11.60;100.00
6433;BME280;3249;42.690;23.260;2023-10-13T06:40:11;94861.91;;;11.51;100.00
6433;BME280;3249;42.690;23.260;2023-10-13T06:42:51;94863.06;;;11.61;100.00
6433;BME280;3249;42.690;23.260;2023-10-13T06:45:22;94862.59;;;11.71;100.00
6433;BME280;3249;42.690;23.260;2023-10-13T06:47:54;94867.03;;;11.88;100.00
6433;BME280;3249;42.690;23.260;2023-10-13T06:50:24;94865.78;;;12.22;100.00
6433;BME280;3249;42.690;23.260;2023-10-13T06:52:58;94869.44;;;12.57;100.00
6433;BME280;3249;42.690;23.260;2023-10-13T06:55:28;94873.63;;;12.76;100.00
6433;BME280;3249;42.690;23.260;2023-10-13T06:58:01;94875.16;;;12.83;100.00
6433;BME280;3249;42.690;23.260;2023-10-13T07:00:32;94864.28;;;12.93;100.00
6433;BME280;3249;42.690;23.260;2023-10-13T07:03:04;94857.84;;;13.20;100.00
6433;BME280;3249;42.690;23.260;2023-10-13T07:05:44;94852.88;;;13.36;100.00
6433;BME280;3249;42.690;23.260;2023-10-13T07:08:19;94850.91;;;13.50;100.00
6433;BME280;3249;42.690;23.260;2023-10-13T07:10:50;94844.63;;;13.57;100.00
6433;BME280;3249;42.690;23.260;2023-10-13T07:13:31;94854.03;;;13.81;100.00
6433;BME280;3249;42.690;23.260;2023-10-13T07:16:04;94857.09;;;13.90;100.00
6433;BME280;3249;42.690;23.260;2023-10-13T07:18:39;94863.22;;;13.66;100.00
6433;BME280;3249;42.690;23.260;2023-10-13T07:21:16;94867.47;;;14.02;100.00
6433;BME280;3249;42.690;23.260;2023-10-13T07:23:53;94862.41;;;14.07;100.00
6433;BME280;3249;42.690;23.260;2023-10-13T07:26:34;94869.56;;;14.34;100.00
6433;BME280;3249;42.690;23.260;2023-10-13T07:29:09;94860.78;;;14.58;100.00
6433;BME280;3249;42.690;23.260;2023-10-13T07:31:38;94869.44;;;14.75;100.00
6433;BME280;3249;42.690;23.260;2023-10-13T07:34:10;94872.25;;;14.74;100.00
6433;BME280;3249;42.690;23.260;2023-10-13T07:36:54;94862.81;;;14.56;100.00
6433;BME280;3249;42.690;23.260;2023-10-13T07:39:30;94857.38;;;14.81;100.00
6433;BME280;3249;42.690;23.260;2023-10-13T07:42:00;94854.47;;;14.77;100.00
6433;BME280;3249;42.690;23.260;2023-10-13T07:44:34;94853.16;;;15.14;100.00
6433;BME280;3249;42.690;23.260;2023-10-13T07:47:12;94854.56;;;15.45;100.00
6433;BME280;3249;42.690;23.260;2023-10-13T07:49:44;94858.84;;;15.67;100.00
6433;BME280;3249;42.690;23.260;2023-10-13T07:52:16;94853.16;;;15.82;100.00
6433;BME280;3249;42.690;23.260;2023-10-13T07:55:05;94854.28;;;16.02;99.71
6433;BME280;3249;42.690;23.260;2023-10-13T07:57:44;94855.69;;;16.26;97.79
6433;BME280;3249;42.690;23.260;2023-10-13T08:00:23;94864.22;;;16.55;93.74
6433;BME280;3249;42.690;23.260;2023-10-13T08:03:13;94857.53;;;16.75;92.48
6433;BME280;3249;42.690;23.260;2023-10-13T08:05:54;94857.22;;;16.93;90.45
6433;BME280;3249;42.690;23.260;2023-10-13T08:08:31;94850.53;;;17.19;86.72
6433;BME280;3249;42.690;23.260;2023-10-13T08:11:07;94846.84;;;17.36;85.02
6433;BME280;3249;42.690;23.260;2023-10-13T08:13:51;94859.84;;;17.58;83.79
6433;BME280;3249;42.690;23.260;2023-10-13T08:16:25;94864.59;;;17.61;82.75
6433;BME280;3249;42.690;23.260;2023-10-13T08:19:12;94861.34;;;17.75;80.74
6433;BME280;3249;42.690;23.260;2023-10-13T08:21:43;94867.91;;;17.83;80.60
6433;BME280;3249;42.690;23.260;2023-10-13T08:24:18;94866.06;;;17.78;82.37
6433;BME280;3249;42.690;23.260;2023-10-13T08:26:56;94880.09;;;17.77;80.57
6433;BME280;3249;42.690;23.260;2023-10-13T08:29:37;94874.78;;;17.24;86.59
6433;BME280;3249;42.690;23.260;2023-10-13T08:32:32;94881.38;;;17.32;86.57
6433;BME280;3249;42.690;23.260;2023-10-13T08:35:21;94868.59;;;17.73;84.45
6433;BME280;3249;42.690;23.260;2023-10-13T08:38:04;94856.13;;;17.75;84.35
6433;BME280;3249;42.690;23.260;2023-10-13T08:40:31;94861.44;;;17.85;83.98
6433;BME280;3249;42.690;23.260;2023-10-13T08:43:35;94859.19;;;17.67;85.13
6433;BME280;3249;42.690;23.260;2023-10-13T08:46:09;94864.00;;;17.80;84.17
6433;BME280;3249;42.690;23.260;2023-10-13T08:48:53;94863.06;;;18.23;79.95
6433;BME280;3249;42.690;23.260;2023-10-13T08:51:34;94862.72;;;18.36;78.40
6433;BME280;3249;42.690;23.260;2023-10-13T08:54:15;94831.94;;;18.07;79.43
6433;BME280;3249;42.690;23.260;2023-10-13T08:56:47;94860.25;;;18.30;80.19
6433;BME280;3249;42.690;23.260;2023-10-13T08:59:25;94856.09;;;18.29;78.73
6433;BME280;3249;42.690;23.260;2023-10-13T09:02:13;94855.19;;;18.45;79.25
6433;BME280;3249;42.690;23.260;2023-10-13T09:04:47;94858.03;;;18.80;74.81
6433;BME280;3249;42.690;23.260;2023-10-13T09:07:25;94850.06;;;18.96;74.48
6433;BME280;3249;42.690;23.260;2023-10-13T09:09:55;94851.28;;;18.84;74.64
6433;BME280;3249;42.690;23.260;2023-10-13T09:12:38;94858.72;;;19.07;71.77
6433;BME280;3249;42.690;23.260;2023-10-13T09:15:32;94857.84;;;19.43;68.21
6433;BME280;3249;42.690;23.260;2023-10-13T09:18:23;94856.34;;;19.72;65.29
6433;BME280;3249;42.690;23.260;2023-10-13T09:21:09;94858.47;;;19.70;64.03
6433;BME280;3249;42.690;23.260;2023-10-13T09:23:51;94848.03;;;19.85;63.44
6433;BME280;3249;42.690;23.260;2023-10-13T09:26:40;94848.59;;;20.07;62.62
6433;BME280;3249;42.690;23.260;2023-10-13T09:29:15;94848.63;;;20.47;60.52
6433;BME280;3249;42.690;23.260;2023-10-13T09:31:58;94848.34;;;20.53;56.58
6433;BME280;3249;42.690;23.260;2023-10-13T09:34:26;94842.84;;;20.60;56.57
6433;BME280;3249;42.690;23.260;2023-10-13T09:36:58;94831.06;;;20.57;56.03
6433;BME280;3249;42.690;23.260;2023-10-13T09:39:26;94841.00;;;20.75;52.63
6433;BME280;3249;42.690;23.260;2023-10-13T09:42:11;94841.78;;;20.76;50.58
6433;BME280;3249;42.690;23.260;2023-10-13T09:44:39;94836.28;;;20.92;50.04
6433;BME280;3249;42.690;23.260;2023-10-13T09:47:21;94843.81;;;21.14;48.66
6433;BME280;3249;42.690;23.260;2023-10-13T09:49:59;94842.50;;;21.16;47.24
6433;BME280;3249;42.690;23.260;2023-10-13T09:52:31;94837.53;;;21.10;47.45
6433;BME280;3249;42.690;23.260;2023-10-13T09:55:16;94838.84;;;21.12;47.20
6433;BME280;3249;42.690;23.260;2023-10-13T09:57:52;94840.63;;;21.22;46.36
6433;BME280;3249;42.690;23.260;2023-10-13T10:00:27;94833.78;;;21.36;46.20
6433;BME280;3249;42.690;23.260;2023-10-13T10:03:12;94832.38;;;21.53;44.38
6433;BME280;3249;42.690;23.260;2023-10-13T10:05:59;94822.31;;;21.22;45.33
6433;BME280;3249;42.690;23.260;2023-10-13T10:08:33;94823.88;;;21.18;45.34
6433;BME280;3249;42.690;23.260;2023-10-13T10:14:16;94813.66;;;21.75;43.77
6433;BME280;3249;42.690;23.260;2023-10-13T10:16:54;94816.19;;;21.90;43.04
6433;BME280;3249;42.690;23.260;2023-10-13T10:19:31;94816.19;;;21.90;42.72
6433;BME280;3249;42.690;23.260;2023-10-13T10:22:02;94801.44;;;22.04;42.92
6433;BME280;3249;42.690;23.260;2023-10-13T10:24:42;94802.59;;;22.22;41.63
6433;BME280;3249;42.690;23.260;2023-10-13T10:27:24;94807.44;;;22.38;41.43
6433;BME280;3249;42.690;23.260;2023-10-13T10:29:55;94802.72;;;22.40;39.60
6433;BME280;3249;42.690;23.260;2023-10-13T10:32:35;94811.03;;;22.52;39.18
6433;BME280;3249;42.690;23.260;2023-10-13T10:35:10;94804.31;;;22.36;39.44
6433;BME280;3249;42.690;23.260;2023-10-13T10:37:47;94797.78;;;22.34;39.76
6433;BME280;3249;42.690;23.260;2023-10-13T10:40:17;94810.00;;;22.48;38.65
6433;BME280;3249;42.690;23.260;2023-10-13T10:43:00;94798.19;;;22.46;40.07
6433;BME280;3249;42.690;23.260;2023-10-13T10:45:35;94803.75;;;22.39;39.68
6433;BME280;3249;42.690;23.260;2023-10-13T10:48:11;94799.41;;;22.30;39.53
6433;BME280;3249;42.690;23.260;2023-10-13T10:50:56;94797.78;;;22.62;38.34
6433;BME280;3249;42.690;23.260;2023-10-13T10:53:34;94797.91;;;22.76;38.07
6433;BME280;3249;42.690;23.260;2023-10-13T10:56:10;94795.94;;;22.91;37.45
6433;BME280;3249;42.690;23.260;2023-10-13T10:59:04;94797.06;;;23.09;36.35
6433;BME280;3249;42.690;23.260;2023-10-13T11:01:43;94799.38;;;23.10;36.83
6433;BME280;3249;42.690;23.260;2023-10-13T11:04:17;94783.19;;;22.80;36.55
6433;BME280;3249;42.690;23.260;2023-10-13T11:06:54;94783.56;;;22.68;38.04
6433;BME280;3249;42.690;23.260;2023-10-13T11:09:25;94790.69;;;22.91;37.35
6433;BME280;3249;42.690;23.260;2023-10-13T11:12:10;94783.69;;;22.82;36.67
6433;BME280;3249;42.690;23.260;2023-10-13T11:15:01;94782.94;;;23.00;36.42
6433;BME280;3249;42.690;23.260;2023-10-13T11:17:31;94786.66;;;23.22;34.61
6433;BME280;3249;42.690;23.260;2023-10-13T11:20:12;94781.41;;;22.99;34.37
6433;BME280;3249;42.690;23.260;2023-10-13T11:22:54;94773.34;;;22.90;34.50
6433;BME280;3249;42.690;23.260;2023-10-13T11:25:24;94772.50;;;22.95;35.05
6433;BME280;3249;42.690;23.260;2023-10-13T11:28:10;94773.78;;;22.97;35.14
6433;BME280;3249;42.690;23.260;2023-10-13T11:30:43;94777.38;;;23.30;34.23
6433;BME280;3249;42.690;23.260;2023-10-13T11:33:16;94768.31;;;23.41;34.03
6433;BME280;3249;42.690;23.260;2023-10-13T11:35:49;94760.09;;;23.24;34.36
6433;BME280;3249;42.690;23.260;2023-10-13T11:38:29;94761.75;;;23.15;34.92
6433;BME280;3249;42.690;23.260;2023-10-13T11:41:09;94763.59;;;23.38;34.63
6433;BME280;3249;42.690;23.260;2023-10-13T11:43:43;94756.44;;;23.43;33.50
6433;BME280;3249;42.690;23.260;2023-10-13T11:46:31;94766.66;;;23.63;33.45
6433;BME280;3249;42.690;23.260;2023-10-13T11:49:12;94758.41;;;23.70;33.40
6433;BME280;3249;42.690;23.260;2023-10-13T11:51:58;94748.19;;;23.68;32.41
6433;BME280;3249;42.690;23.260;2023-10-13T11:54:39;94754.53;;;23.49;33.10
6433;BME280;3249;42.690;23.260;2023-10-13T11:57:10;94754.53;;;23.67;33.16
6433;BME280;3249;42.690;23.260;2023-10-13T11:59:42;94757.25;;;23.76;32.81
6433;BME280;3249;42.690;23.260;2023-10-13T12:02:20;94741.44;;;23.81;32.65
6433;BME280;3249;42.690;23.260;2023-10-13T12:05:01;94745.81;;;23.85;32.94
6433;BME280;3249;42.690;23.260;2023-10-13T12:07:38;94735.19;;;23.77;33.31
6433;BME280;3249;42.690;23.260;2023-10-13T12:10:32;94738.09;;;23.75;32.91
6433;BME280;3249;42.690;23.260;2023-10-13T12:13:15;94738.53;;;23.82;32.22
6433;BME280;3249;42.690;23.260;2023-10-13T12:15:45;94733.91;;;23.93;31.97
6433;BME280;3249;42.690;23.260;2023-10-13T12:18:19;94734.38;;;23.95;31.56
6433;BME280;3249;42.690;23.260;2023-10-13T12:20:49;94732.59;;;23.90;31.84
6433;BME280;3249;42.690;23.260;2023-10-13T12:23:18;94725.97;;;23.61;32.33
6433;BME280;3249;42.690;23.260;2023-10-13T12:25:59;94732.22;;;23.65;32.10
6433;BME280;3249;42.690;23.260;2023-10-13T12:28:33;94722.75;;;23.27;32.08
6433;BME280;3249;42.690;23.260;2023-10-13T12:31:06;94725.50;;;23.17;32.10
6433;BME280;3249;42.690;23.260;2023-10-13T12:33:38;94721.88;;;23.13;32.23
6433;BME280;3249;42.690;23.260;2023-10-13T12:36:08;94712.41;;;23.12;32.46
6433;BME280;3249;42.690;23.260;2023-10-13T12:38:41;94720.41;;;23.25;33.10
6433;BME280;3249;42.690;23.260;2023-10-13T12:41:25;94716.94;;;23.48;31.82
6433;BME280;3249;42.690;23.260;2023-10-13T12:44:07;94714.06;;;23.26;31.96
6433;BME280;3249;42.690;23.260;2023-10-13T12:46:48;94721.25;;;22.97;31.94
6433;BME280;3249;42.690;23.260;2023-10-13T12:49:32;94715.72;;;22.99;31.67
6433;BME280;3249;42.690;23.260;2023-10-13T12:52:15;94710.97;;;23.01;31.85
6433;BME280;3249;42.690;23.260;2023-10-13T12:54:45;94711.19;;;23.04;32.80
6433;BME280;3249;42.690;23.260;2023-10-13T12:57:28;94712.31;;;22.98;31.42
6433;BME280;3249;42.690;23.260;2023-10-13T12:59:58;94710.50;;;23.17;30.87
6433;BME280;3249;42.690;23.260;2023-10-13T13:02:42;94707.34;;;23.39;30.87
6433;BME280;3249;42.690;23.260;2023-10-13T13:05:12;94703.13;;;23.19;32.06
6433;BME280;3249;42.690;23.260;2023-10-13T13:07:41;94706.50;;;23.25;31.71
6433;BME280;3249;42.690;23.260;2023-10-13T13:10:13;94696.69;;;23.30;31.24
6433;BME280;3249;42.690;23.260;2023-10-13T13:12:45;94703.81;;;23.30;31.96
6433;BME280;3249;42.690;23.260;2023-10-13T13:15:14;94703.50;;;23.13;31.91
6433;BME280;3249;42.690;23.260;2023-10-13T13:17:49;94710.66;;;23.07;31.85
6433;BME280;3249;42.690;23.260;2023-10-13T13:20:18;94701.91;;;23.12;31.95
6433;BME280;3249;42.690;23.260;2023-10-13T13:22:56;94708.94;;;23.16;31.54
6433;BME280;3249;42.690;23.260;2023-10-13T13:25:28;94709.06;;;23.30;31.71
6433;BME280;3249;42.690;23.260;2023-10-13T13:28:02;94703.81;;;23.30;31.46
6433;BME280;3249;42.690;23.260;2023-10-13T13:30:34;94697.63;;;23.39;31.42
6433;BME280;3249;42.690;23.260;2023-10-13T13:33:04;94702.59;;;23.41;31.77
6433;BME280;3249;42.690;23.260;2023-10-13T13:35:37;94696.03;;;23.38;31.66
6433;BME280;3249;42.690;23.260;2023-10-13T13:38:09;94702.88;;;23.58;30.46
6433;BME280;3249;42.690;23.260;2023-10-13T13:40:48;94700.72;;;23.60;30.82
6433;BME280;3249;42.690;23.260;2023-10-13T13:43:22;94710.88;;;23.66;30.25
6433;BME280;3249;42.690;23.260;2023-10-13T13:46:16;94702.16;;;23.52;30.80
6433;BME280;3249;42.690;23.260;2023-10-13T13:48:51;94697.88;;;23.56;30.70
6433;BME280;3249;42.690;23.260;2023-10-13T13:51:25;94707.31;;;23.57;30.47
6433;BME280;3249;42.690;23.260;2023-10-13T13:53:58;94702.59;;;23.41;31.19
6433;BME280;3249;42.690;23.260;2023-10-13T13:56:32;94698.63;;;23.25;31.28
6433;BME280;3249;42.690;23.260;2023-10-13T13:59:07;94699.94;;;23.22;32.61
6433;BME280;3249;42.690;23.260;2023-10-13T14:01:40;94695.63;;;23.31;32.02
6433;BME280;3249;42.690;23.260;2023-10-13T14:04:10;94695.41;;;23.28;32.10